Missoula, Montana
Current Conditions -  °F | °C
As of 2:53 PM on Tuesday 25 Nov 2014 (Local Time) from KMSO Reporting Station
Light Rain Light Rain  
Wind Chill: -1°   Ceiling: 3500
Heat Index:   Visibility: 8mi
Dew Point:   Wind: 6mph
Humidity: 100%   Direction: 240°WSW
Pressure: 30.13"   Gusts: NA
Location:  46.87°N, 113.99°W
Report Text: KMSO 252153Z 24005KT 8SM -RA BKN035 OVC045 02/02 A3013 RMK AO2 SLP230 P0001 T00170017
Loading
Personal Weather Stations






























Interactive Weather Map New forecast layout! Learn more

10-Day Weather Forecast

Advertisements
Track Severe Weather on mobile